sensor_id;sensor_type;location;lat;lon;timestamp;pressure;altitude;pressure_sealevel;temperature;humidity
24962;BME280;12992;50.884;13.668;2023-03-13T00:00:52;96625.63;;;7.50;100.00
24962;BME280;12992;50.884;13.668;2023-03-13T00:03:18;96628.09;;;7.51;100.00
24962;BME280;12992;50.884;13.668;2023-03-13T00:05:44;96627.59;;;7.54;100.00
24962;BME280;12992;50.884;13.668;2023-03-13T00:08:09;96610.44;;;7.49;100.00
24962;BME280;12992;50.884;13.668;2023-03-13T00:10:36;96623.72;;;7.50;100.00
24962;BME280;12992;50.884;13.668;2023-03-13T00:13:02;96628.09;;;7.51;100.00
24962;BME280;12992;50.884;13.668;2023-03-13T00:15:27;96624.81;;;7.49;100.00
24962;BME280;12992;50.884;13.668;2023-03-13T00:17:53;96621.84;;;7.51;100.00
24962;BME280;12992;50.884;13.668;2023-03-13T00:20:18;96615.03;;;7.48;100.00
24962;BME280;12992;50.884;13.668;2023-03-13T00:22:43;96602.00;;;7.45;100.00
24962;BME280;12992;50.884;13.668;2023-03-13T00:25:09;96607.69;;;7.44;100.00
24962;BME280;12992;50.884;13.668;2023-03-13T00:27:34;96605.47;;;7.41;100.00
24962;BME280;12992;50.884;13.668;2023-03-13T00:29:59;96586.75;;;7.39;100.00
24962;BME280;12992;50.884;13.668;2023-03-13T00:32:25;96592.97;;;7.34;100.00
24962;BME280;12992;50.884;13.668;2023-03-13T00:34:50;96607.63;;;7.38;100.00
24962;BME280;12992;50.884;13.668;2023-03-13T00:37:16;96610.31;;;7.38;100.00
24962;BME280;12992;50.884;13.668;2023-03-13T00:39:41;96611.47;;;7.43;100.00
24962;BME280;12992;50.884;13.668;2023-03-13T00:42:06;96611.25;;;7.49;100.00
24962;BME280;12992;50.884;13.668;2023-03-13T00:44:32;96619.38;;;7.49;100.00
24962;BME280;12992;50.884;13.668;2023-03-13T00:46:57;96623.78;;;7.55;100.00
24962;BME280;12992;50.884;13.668;2023-03-13T00:49:23;96620.78;;;7.52;100.00
24962;BME280;12992;50.884;13.668;2023-03-13T00:51:48;96615.13;;;7.53;100.00
24962;BME280;12992;50.884;13.668;2023-03-13T00:54:13;96606.47;;;7.56;100.00
24962;BME280;12992;50.884;13.668;2023-03-13T00:56:39;96608.09;;;7.57;100.00
24962;BME280;12992;50.884;13.668;2023-03-13T00:59:04;96617.63;;;7.60;100.00
24962;BME280;12992;50.884;13.668;2023-03-13T01:01:32;96613.84;;;7.61;100.00
24962;BME280;12992;50.884;13.668;2023-03-13T01:04:10;96604.28;;;7.53;100.00
24962;BME280;12992;50.884;13.668;2023-03-13T01:06:38;96598.84;;;7.53;100.00
24962;BME280;12992;50.884;13.668;2023-03-13T01:09:05;96602.94;;;7.56;100.00
24962;BME280;12992;50.884;13.668;2023-03-13T01:11:33;96604.91;;;7.60;100.00
24962;BME280;12992;50.884;13.668;2023-03-13T01:14:02;96602.75;;;7.62;100.00
24962;BME280;12992;50.884;13.668;2023-03-13T01:16:30;96586.69;;;7.56;100.00
24962;BME280;12992;50.884;13.668;2023-03-13T01:18:59;96587.19;;;7.53;100.00
24962;BME280;12992;50.884;13.668;2023-03-13T01:21:26;96574.09;;;7.45;100.00
24962;BME280;12992;50.884;13.668;2023-03-13T01:23:52;96570.03;;;7.42;100.00
24962;BME280;12992;50.884;13.668;2023-03-13T01:26:18;96566.72;;;7.40;100.00
24962;BME280;12992;50.884;13.668;2023-03-13T01:28:44;96563.19;;;7.39;100.00
24962;BME280;12992;50.884;13.668;2023-03-13T01:31:21;96574.59;;;7.42;100.00
24962;BME280;12992;50.884;13.668;2023-03-13T01:33:49;96563.75;;;7.42;100.00
24962;BME280;12992;50.884;13.668;2023-03-13T01:36:15;96567.34;;;7.47;100.00
24962;BME280;12992;50.884;13.668;2023-03-13T01:38:41;96566.78;;;7.45;100.00
24962;BME280;12992;50.884;13.668;2023-03-13T01:41:09;96571.13;;;7.46;100.00
24962;BME280;12992;50.884;13.668;2023-03-13T01:43:35;96571.69;;;7.48;100.00
24962;BME280;12992;50.884;13.668;2023-03-13T01:46:09;96566.00;;;7.50;100.00
24962;BME280;12992;50.884;13.668;2023-03-13T01:49:04;96558.22;;;7.53;100.00
24962;BME280;12992;50.884;13.668;2023-03-13T01:51:37;96558.25;;;7.58;100.00
24962;BME280;12992;50.884;13.668;2023-03-13T01:54:50;96561.78;;;7.59;100.00
24962;BME280;12992;50.884;13.668;2023-03-13T01:57:03;96551.41;;;7.51;100.00
24962;BME280;12992;50.884;13.668;2023-03-13T02:02:22;96559.03;;;7.54;100.00
24962;BME280;12992;50.884;13.668;2023-03-13T02:04:52;96552.78;;;7.53;100.00
24962;BME280;12992;50.884;13.668;2023-03-13T02:07:25;96549.22;;;7.48;100.00
24962;BME280;12992;50.884;13.668;2023-03-13T02:09:55;96551.66;;;7.49;100.00
24962;BME280;12992;50.884;13.668;2023-03-13T02:12:28;96554.38;;;7.49;100.00
24962;BME280;12992;50.884;13.668;2023-03-13T02:14:57;96543.53;;;7.49;100.00
24962;BME280;12992;50.884;13.668;2023-03-13T02:17:24;96533.72;;;7.43;100.00
24962;BME280;12992;50.884;13.668;2023-03-13T02:19:50;96531.03;;;7.43;100.00
24962;BME280;12992;50.884;13.668;2023-03-13T02:27:34;96498.03;;;7.24;100.00
24962;BME280;12992;50.884;13.668;2023-03-13T02:30:00;96505.84;;;7.21;100.00
24962;BME280;12992;50.884;13.668;2023-03-13T02:32:27;96513.69;;;7.17;100.00
24962;BME280;12992;50.884;13.668;2023-03-13T02:34:57;96503.66;;;7.18;100.00
24962;BME280;12992;50.884;13.668;2023-03-13T02:37:24;96509.56;;;7.15;100.00
24962;BME280;12992;50.884;13.668;2023-03-13T02:39:53;96508.25;;;7.17;100.00
24962;BME280;12992;50.884;13.668;2023-03-13T02:42:20;96520.56;;;7.30;100.00
24962;BME280;12992;50.884;13.668;2023-03-13T02:44:46;96527.69;;;7.36;100.00
24962;BME280;12992;50.884;13.668;2023-03-13T02:47:20;96515.22;;;7.35;100.00
24962;BME280;12992;50.884;13.668;2023-03-13T02:49:47;96519.81;;;7.34;100.00
24962;BME280;12992;50.884;13.668;2023-03-13T02:54:44;96506.50;;;7.33;100.00
24962;BME280;12992;50.884;13.668;2023-03-13T02:57:09;96507.84;;;7.30;100.00
24962;BME280;12992;50.884;13.668;2023-03-13T02:59:35;96512.44;;;7.30;100.00
24962;BME280;12992;50.884;13.668;2023-03-13T03:02:00;96503.78;;;7.28;100.00
24962;BME280;12992;50.884;13.668;2023-03-13T03:04:26;96515.72;;;7.32;100.00
24962;BME280;12992;50.884;13.668;2023-03-13T03:06:54;96515.72;;;7.32;100.00
24962;BME280;12992;50.884;13.668;2023-03-13T03:09:21;96519.56;;;7.36;100.00
24962;BME280;12992;50.884;13.668;2023-03-13T03:11:50;96515.84;;;7.42;100.00
24962;BME280;12992;50.884;13.668;2023-03-13T03:14:15;96522.44;;;7.51;100.00
24962;BME280;12992;50.884;13.668;2023-03-13T03:16:44;96520.53;;;7.52;100.00
24962;BME280;12992;50.884;13.668;2023-03-13T03:19:09;96527.38;;;7.59;100.00
24962;BME280;12992;50.884;13.668;2023-03-13T03:21:35;96516.59;;;7.64;100.00
24962;BME280;12992;50.884;13.668;2023-03-13T03:24:01;96518.78;;;7.67;100.00
24962;BME280;12992;50.884;13.668;2023-03-13T03:26:27;96501.97;;;7.65;100.00
24962;BME280;12992;50.884;13.668;2023-03-13T03:28:52;96491.66;;;7.62;100.00
24962;BME280;12992;50.884;13.668;2023-03-13T03:31:18;96496.25;;;7.62;100.00
24962;BME280;12992;50.884;13.668;2023-03-13T03:33:44;96494.91;;;7.64;100.00
24962;BME280;12992;50.884;13.668;2023-03-13T03:36:13;96486.78;;;7.64;100.00
24962;BME280;12992;50.884;13.668;2023-03-13T03:38:40;96483.56;;;7.67;100.00
24962;BME280;12992;50.884;13.668;2023-03-13T03:41:08;96480.84;;;7.67;100.00
24962;BME280;12992;50.884;13.668;2023-03-13T03:43:34;96476.56;;;7.72;100.00
24962;BME280;12992;50.884;13.668;2023-03-13T03:46:02;96466.53;;;7.72;100.00
24962;BME280;12992;50.884;13.668;2023-03-13T03:48:28;96455.44;;;7.74;100.00
24962;BME280;12992;50.884;13.668;2023-03-13T03:50:53;96459.47;;;7.71;100.00
24962;BME280;12992;50.884;13.668;2023-03-13T03:53:20;96445.63;;;7.67;100.00
24962;BME280;12992;50.884;13.668;2023-03-13T03:55:45;96440.47;;;7.66;100.00
24962;BME280;12992;50.884;13.668;2023-03-13T03:58:10;96424.94;;;7.56;100.00
24962;BME280;12992;50.884;13.668;2023-03-13T04:00:58;96428.19;;;7.58;100.00
24962;BME280;12992;50.884;13.668;2023-03-13T04:03:25;96412.47;;;7.55;100.00
24962;BME280;12992;50.884;13.668;2023-03-13T04:05:51;96408.91;;;7.50;100.00
24962;BME280;12992;50.884;13.668;2023-03-13T04:08:17;96398.06;;;7.50;100.00
24962;BME280;12992;50.884;13.668;2023-03-13T04:10:43;96389.38;;;7.48;100.00
24962;BME280;12992;50.884;13.668;2023-03-13T04:13:08;96385.31;;;7.45;100.00
24962;BME280;12992;50.884;13.668;2023-03-13T04:15:33;96394.25;;;7.46;100.00
24962;BME280;12992;50.884;13.668;2023-03-13T04:17:59;96387.47;;;7.48;100.00
24962;BME280;12992;50.884;13.668;2023-03-13T04:20:25;96384.78;;;7.48;100.00
24962;BME280;12992;50.884;13.668;2023-03-13T04:22:52;96390.75;;;7.50;100.00
24962;BME280;12992;50.884;13.668;2023-03-13T04:25:18;96396.75;;;7.52;100.00
24962;BME280;12992;50.884;13.668;2023-03-13T04:27:44;96397.81;;;7.51;100.00
24962;BME280;12992;50.884;13.668;2023-03-13T04:30:09;96397.84;;;7.56;100.00
24962;BME280;12992;50.884;13.668;2023-03-13T04:32:41;96386.19;;;7.56;100.00
24962;BME280;12992;50.884;13.668;2023-03-13T04:35:22;96399.53;;;7.62;100.00
24962;BME280;12992;50.884;13.668;2023-03-13T04:38:20;96380.56;;;7.62;100.00
24962;BME280;12992;50.884;13.668;2023-03-13T04:40:53;96373.78;;;7.60;100.00
24962;BME280;12992;50.884;13.668;2023-03-13T04:43:37;96370.00;;;7.66;100.00
24962;BME280;12992;50.884;13.668;2023-03-13T04:46:09;96376.03;;;7.73;100.00
24962;BME280;12992;50.884;13.668;2023-03-13T04:48:44;96379.28;;;7.75;100.00
24962;BME280;12992;50.884;13.668;2023-03-13T04:51:23;96368.78;;;7.84;100.00
24962;BME280;12992;50.884;13.668;2023-03-13T04:54:11;96368.75;;;7.79;100.00
24962;BME280;12992;50.884;13.668;2023-03-13T04:56:56;96377.50;;;7.91;100.00
24962;BME280;12992;50.884;13.668;2023-03-13T04:59:27;96367.47;;;7.91;100.00
24962;BME280;12992;50.884;13.668;2023-03-13T05:02:12;96364.47;;;7.93;100.00
24962;BME280;12992;50.884;13.668;2023-03-13T05:05:03;96345.75;;;7.86;100.00
24962;BME280;12992;50.884;13.668;2023-03-13T05:07:47;96340.03;;;7.83;100.00
24962;BME280;12992;50.884;13.668;2023-03-13T05:10:28;96332.72;;;7.83;100.00
24962;BME280;12992;50.884;13.668;2023-03-13T05:13:14;96330.06;;;7.88;100.00
24962;BME280;12992;50.884;13.668;2023-03-13T05:15:52;96332.50;;;7.90;100.00
24962;BME280;12992;50.884;13.668;2023-03-13T05:18:52;96327.66;;;7.97;100.00
24962;BME280;12992;50.884;13.668;2023-03-13T05:21:24;96329.34;;;8.08;100.00
24962;BME280;12992;50.884;13.668;2023-03-13T05:24:03;96313.88;;;8.09;100.00
24962;BME280;12992;50.884;13.668;2023-03-13T05:26:46;96301.41;;;8.08;100.00
24962;BME280;12992;50.884;13.668;2023-03-13T05:29:33;96300.28;;;8.04;100.00
24962;BME280;12992;50.884;13.668;2023-03-13T05:32:14;96299.78;;;8.07;100.00
24962;BME280;12992;50.884;13.668;2023-03-13T05:35:06;96288.13;;;8.06;100.00
24962;BME280;12992;50.884;13.668;2023-03-13T05:37:46;96285.41;;;8.11;100.00
24962;BME280;12992;50.884;13.668;2023-03-13T05:40:28;96293.34;;;8.23;100.00
24962;BME280;12992;50.884;13.668;2023-03-13T05:43:06;96287.09;;;8.28;100.00
24962;BME280;12992;50.884;13.668;2023-03-13T05:45:46;96288.78;;;8.39;100.00
24962;BME280;12992;50.884;13.668;2023-03-13T05:48:30;96282.84;;;8.47;100.00
24962;BME280;12992;50.884;13.668;2023-03-13T05:51:19;96281.53;;;8.60;100.00
24962;BME280;12992;50.884;13.668;2023-03-13T05:54:03;96269.59;;;8.66;100.00
24962;BME280;12992;50.884;13.668;2023-03-13T05:56:59;96270.41;;;8.71;100.00
24962;BME280;12992;50.884;13.668;2023-03-13T05:59:34;96256.84;;;8.71;100.00
24962;BME280;12992;50.884;13.668;2023-03-13T06:02:19;96265.53;;;8.73;100.00
24962;BME280;12992;50.884;13.668;2023-03-13T06:04:46;96257.13;;;8.70;100.00
24962;BME280;12992;50.884;13.668;2023-03-13T06:07:11;96252.22;;;8.62;100.00
24962;BME280;12992;50.884;13.668;2023-03-13T06:09:37;96246.75;;;8.57;100.00
24962;BME280;12992;50.884;13.668;2023-03-13T06:12:02;96224.78;;;8.43;100.00
24962;BME280;12992;50.884;13.668;2023-03-13T06:14:28;96208.16;;;8.29;100.00
24962;BME280;12992;50.884;13.668;2023-03-13T06:17:20;96175.84;;;8.12;100.00
24962;BME280;12992;50.884;13.668;2023-03-13T06:19:46;96176.38;;;7.99;100.00
24962;BME280;12992;50.884;13.668;2023-03-13T06:22:11;96193.16;;;7.91;100.00
24962;BME280;12992;50.884;13.668;2023-03-13T06:24:36;96199.41;;;7.91;100.00
24962;BME280;12992;50.884;13.668;2023-03-13T06:27:02;96196.97;;;7.90;100.00
24962;BME280;12992;50.884;13.668;2023-03-13T06:29:27;96209.47;;;7.96;100.00
24962;BME280;12992;50.884;13.668;2023-03-13T06:31:53;96210.28;;;8.02;100.00
24962;BME280;12992;50.884;13.668;2023-03-13T06:34:18;96202.97;;;8.07;100.00
24962;BME280;12992;50.884;13.668;2023-03-13T06:36:44;96196.50;;;8.13;100.00
24962;BME280;12992;50.884;13.668;2023-03-13T06:39:10;96191.34;;;8.17;100.00
24962;BME280;12992;50.884;13.668;2023-03-13T06:41:35;96194.31;;;8.20;100.00
24962;BME280;12992;50.884;13.668;2023-03-13T06:44:01;96182.97;;;8.23;100.00
24962;BME280;12992;50.884;13.668;2023-03-13T06:46:26;96193.28;;;8.32;100.00
24962;BME280;12992;50.884;13.668;2023-03-13T06:48:52;96181.34;;;8.38;100.00
24962;BME280;12992;50.884;13.668;2023-03-13T06:51:20;96180.03;;;8.40;100.00
24962;BME280;12992;50.884;13.668;2023-03-13T06:53:46;96180.28;;;8.44;100.00
24962;BME280;12992;50.884;13.668;2023-03-13T06:56:12;96174.88;;;8.49;100.00
24962;BME280;12992;50.884;13.668;2023-03-13T06:58:37;96174.34;;;8.52;100.00
24962;BME280;12992;50.884;13.668;2023-03-13T07:01:10;96181.94;;;8.60;100.00
24962;BME280;12992;50.884;13.668;2023-03-13T07:03:36;96191.97;;;8.70;100.00
24962;BME280;12992;50.884;13.668;2023-03-13T07:06:02;96212.59;;;8.81;100.00
24962;BME280;12992;50.884;13.668;2023-03-13T07:08:28;96219.91;;;8.91;100.00
24962;BME280;12992;50.884;13.668;2023-03-13T07:10:58;96229.16;;;9.05;100.00
24962;BME280;12992;50.884;13.668;2023-03-13T07:13:24;96232.41;;;9.17;100.00
24962;BME280;12992;50.884;13.668;2023-03-13T07:15:49;96218.28;;;9.20;100.00
24962;BME280;12992;50.884;13.668;2023-03-13T07:18:15;96193.84;;;9.15;100.00
24962;BME280;12992;50.884;13.668;2023-03-13T07:20:41;96182.16;;;9.09;100.00
24962;BME280;12992;50.884;13.668;2023-03-13T07:23:06;96176.22;;;9.02;100.00
24962;BME280;12992;50.884;13.668;2023-03-13T07:25:31;96165.91;;;8.94;100.00
24962;BME280;12992;50.884;13.668;2023-03-13T07:27:57;96161.31;;;8.85;100.00
24962;BME280;12992;50.884;13.668;2023-03-13T07:30:22;96164.00;;;8.74;100.00
24962;BME280;12992;50.884;13.668;2023-03-13T07:32:47;96147.47;;;8.71;100.00
24962;BME280;12992;50.884;13.668;2023-03-13T07:35:13;96139.88;;;8.58;100.00
24962;BME280;12992;50.884;13.668;2023-03-13T07:37:38;96129.84;;;8.43;100.00
24962;BME280;12992;50.884;13.668;2023-03-13T07:40:04;96125.19;;;8.33;100.00
24962;BME280;12992;50.884;13.668;2023-03-13T07:42:29;96113.81;;;8.31;100.00
24962;BME280;12992;50.884;13.668;2023-03-13T07:44:55;96113.81;;;8.36;100.00
24962;BME280;12992;50.884;13.668;2023-03-13T07:47:20;96114.91;;;8.40;100.00
24962;BME280;12992;50.884;13.668;2023-03-13T07:49:45;96121.16;;;8.41;100.00
24962;BME280;12992;50.884;13.668;2023-03-13T07:52:11;96105.41;;;8.43;100.00
24962;BME280;12992;50.884;13.668;2023-03-13T07:54:36;96105.97;;;8.50;100.00
24962;BME280;12992;50.884;13.668;2023-03-13T07:57:01;96118.41;;;8.56;100.00
24962;BME280;12992;50.884;13.668;2023-03-13T07:59:27;96105.69;;;8.62;100.00
24962;BME280;12992;50.884;13.668;2023-03-13T08:01:52;96100.50;;;8.65;100.00
24962;BME280;12992;50.884;13.668;2023-03-13T08:04:18;96103.22;;;8.70;100.00
24962;BME280;12992;50.884;13.668;2023-03-13T08:06:43;96107.03;;;8.69;100.00
24962;BME280;12992;50.884;13.668;2023-03-13T08:09:08;96074.22;;;8.66;100.00
24962;BME280;12992;50.884;13.668;2023-03-13T08:11:34;96080.44;;;8.66;100.00
24962;BME280;12992;50.884;13.668;2023-03-13T08:13:59;96106.22;;;8.69;100.00
24962;BME280;12992;50.884;13.668;2023-03-13T08:16:27;96099.41;;;8.71;100.00
24962;BME280;12992;50.884;13.668;2023-03-13T08:18:54;96096.16;;;8.69;100.00
24962;BME280;12992;50.884;13.668;2023-03-13T08:21:28;96102.66;;;8.73;100.00
24962;BME280;12992;50.884;13.668;2023-03-13T08:23:55;96110.28;;;8.76;100.00
24962;BME280;12992;50.884;13.668;2023-03-13T08:26:23;96100.50;;;8.80;100.00
24962;BME280;12992;50.884;13.668;2023-03-13T08:28:54;96103.75;;;8.77;100.00
24962;BME280;12992;50.884;13.668;2023-03-13T08:31:22;96119.78;;;8.84;100.00
24962;BME280;12992;50.884;13.668;2023-03-13T08:33:48;96113.22;;;8.90;100.00
24962;BME280;12992;50.884;13.668;2023-03-13T08:36:16;96108.88;;;8.94;100.00
24962;BME280;12992;50.884;13.668;2023-03-13T08:38:42;96121.91;;;9.02;100.00
24962;BME280;12992;50.884;13.668;2023-03-13T08:41:10;96133.56;;;9.13;100.00
24962;BME280;12992;50.884;13.668;2023-03-13T08:43:36;96147.88;;;9.39;100.00
24962;BME280;12992;50.884;13.668;2023-03-13T08:46:01;96152.19;;;9.55;100.00
24962;BME280;12992;50.884;13.668;2023-03-13T08:48:26;96157.00;;;9.74;100.00
24962;BME280;12992;50.884;13.668;2023-03-13T08:51:05;96165.03;;;9.94;100.00
24962;BME280;12992;50.884;13.668;2023-03-13T08:53:32;96145.69;;;10.01;100.00
24962;BME280;12992;50.884;13.668;2023-03-13T08:55:58;96165.56;;;10.01;100.00
24962;BME280;12992;50.884;13.668;2023-03-13T08:58:23;96139.75;;;9.99;100.00
24962;BME280;12992;50.884;13.668;2023-03-13T09:00:49;96137.53;;;10.01;100.00
24962;BME280;12992;50.884;13.668;2023-03-13T09:03:14;96133.16;;;10.05;100.00
24962;BME280;12992;50.884;13.668;2023-03-13T09:05:39;96132.63;;;10.08;100.00
24962;BME280;12992;50.884;13.668;2023-03-13T09:08:05;96122.22;;;10.15;100.00
24962;BME280;12992;50.884;13.668;2023-03-13T09:10:34;96133.06;;;10.25;100.00
24962;BME280;12992;50.884;13.668;2023-03-13T09:13:00;96127.28;;;10.32;100.00
24962;BME280;12992;50.884;13.668;2023-03-13T09:15:25;96134.63;;;10.36;100.00
24962;BME280;12992;50.884;13.668;2023-03-13T09:17:50;96131.28;;;10.44;100.00
24962;BME280;12992;50.884;13.668;2023-03-13T09:20:16;96130.94;;;10.51;100.00
24962;BME280;12992;50.884;13.668;2023-03-13T09:22:43;96137.63;;;10.69;100.00
24962;BME280;12992;50.884;13.668;2023-03-13T09:25:09;96132.63;;;10.81;100.00
24962;BME280;12992;50.884;13.668;2023-03-13T09:27:34;96138.50;;;10.93;100.00
24962;BME280;12992;50.884;13.668;2023-03-13T09:29:59;96120.00;;;10.90;100.00
24962;BME280;12992;50.884;13.668;2023-03-13T09:32:25;96097.81;;;10.78;100.00
24962;BME280;12992;50.884;13.668;2023-03-13T09:34:50;96086.28;;;10.57;100.00
24962;BME280;12992;50.884;13.668;2023-03-13T09:37:15;96089.13;;;10.42;100.00
24962;BME280;12992;50.884;13.668;2023-03-13T09:39:41;96102.72;;;10.42;100.00
24962;BME280;12992;50.884;13.668;2023-03-13T09:42:15;96108.72;;;10.44;100.00
24962;BME280;12992;50.884;13.668;2023-03-13T09:44:47;96118.94;;;10.57;100.00
24962;BME280;12992;50.884;13.668;2023-03-13T09:47:21;96151.69;;;10.81;100.00
24962;BME280;12992;50.884;13.668;2023-03-13T09:50:03;96160.81;;;11.24;100.00
24962;BME280;12992;50.884;13.668;2023-03-13T09:52:39;96160.75;;;11.77;100.00
24962;BME280;12992;50.884;13.668;2023-03-13T09:55:23;96169.13;;;12.99;100.00
24962;BME280;12992;50.884;13.668;2023-03-13T09:57:55;96166.78;;;14.21;98.55
24962;BME280;12992;50.884;13.668;2023-03-13T10:00:29;96163.53;;;15.14;90.89
24962;BME280;12992;50.884;13.668;2023-03-13T10:02:59;96147.59;;;15.78;85.15
24962;BME280;12992;50.884;13.668;2023-03-13T10:05:28;96111.53;;;15.71;84.04
24962;BME280;12992;50.884;13.668;2023-03-13T10:08:07;96015.47;;;14.83;85.20
24962;BME280;12992;50.884;13.668;2023-03-13T10:13:18;96005.97;;;13.13;96.19
24962;BME280;12992;50.884;13.668;2023-03-13T10:15:50;96009.47;;;12.59;99.38
24962;BME280;12992;50.884;13.668;2023-03-13T10:18:21;96008.53;;;12.17;100.00
24962;BME280;12992;50.884;13.668;2023-03-13T10:20:50;96011.53;;;12.02;100.00
24962;BME280;12992;50.884;13.668;2023-03-13T10:23:38;96024.25;;;12.06;100.00
24962;BME280;12992;50.884;13.668;2023-03-13T10:26:04;96018.00;;;12.06;100.00
24962;BME280;12992;50.884;13.668;2023-03-13T10:28:29;96015.56;;;12.04;100.00
24962;BME280;12992;50.884;13.668;2023-03-13T10:31:03;96042.34;;;12.35;100.00
24962;BME280;12992;50.884;13.668;2023-03-13T10:33:31;96072.44;;;12.95;100.00
24962;BME280;12992;50.884;13.668;2023-03-13T10:36:11;96074.03;;;13.56;100.00
24962;BME280;12992;50.884;13.668;2023-03-13T10:38:55;96068.78;;;13.96;96.22
24962;BME280;12992;50.884;13.668;2023-03-13T10:41:29;96066.91;;;14.18;94.62
24962;BME280;12992;50.884;13.668;2023-03-13T10:44:02;96074.13;;;14.51;95.01
24962;BME280;12992;50.884;13.668;2023-03-13T10:46:31;96071.72;;;14.80;92.24
24962;BME280;12992;50.884;13.668;2023-03-13T10:49:00;96038.50;;;14.51;92.81
24962;BME280;12992;50.884;13.668;2023-03-13T10:51:33;96015.94;;;14.09;94.64
24962;BME280;12992;50.884;13.668;2023-03-13T10:53:59;96020.28;;;14.10;95.50
24962;BME280;12992;50.884;13.668;2023-03-13T10:56:28;96006.59;;;13.87;97.49
24962;BME280;12992;50.884;13.668;2023-03-13T10:58:54;96010.56;;;13.81;99.91
24962;BME280;12992;50.884;13.668;2023-03-13T11:01:28;95986.75;;;13.68;98.41
24962;BME280;12992;50.884;13.668;2023-03-13T11:03:55;95999.56;;;13.59;100.00
24962;BME280;12992;50.884;13.668;2023-03-13T11:06:28;96010.50;;;13.59;100.00
24962;BME280;12992;50.884;13.668;2023-03-13T11:09:10;96013.28;;;13.45;100.00
24962;BME280;12992;50.884;13.668;2023-03-13T11:14:19;95996.38;;;13.29;100.00
24962;BME280;12992;50.884;13.668;2023-03-13T11:17:02;95998.09;;;13.25;100.00
24962;BME280;12992;50.884;13.668;2023-03-13T11:19:36;95999.41;;;13.28;100.00
24962;BME280;12992;50.884;13.668;2023-03-13T11:24:49;96013.88;;;13.28;100.00
24962;BME280;12992;50.884;13.668;2023-03-13T11:27:27;96014.78;;;13.10;100.00
24962;BME280;12992;50.884;13.668;2023-03-13T11:33:01;96021.53;;;12.85;100.00
24962;BME280;12992;50.884;13.668;2023-03-13T11:36:00;96020.22;;;12.83;100.00
24962;BME280;12992;50.884;13.668;2023-03-13T11:38:31;96021.84;;;12.84;100.00
24962;BME280;12992;50.884;13.668;2023-03-13T11:41:18;96031.16;;;12.83;100.00
24962;BME280;12992;50.884;13.668;2023-03-13T11:44:11;96017.16;;;12.70;100.00
24962;BME280;12992;50.884;13.668;2023-03-13T11:46:58;96024.47;;;12.75;100.00
24962;BME280;12992;50.884;13.668;2023-03-13T11:49:38;96007.97;;;12.66;100.00
24962;BME280;12992;50.884;13.668;2023-03-13T11:53:18;96019.78;;;12.62;100.00
24962;BME280;12992;50.884;13.668;2023-03-13T11:55:49;96010.25;;;12.59;100.00
24962;BME280;12992;50.884;13.668;2023-03-13T11:58:40;96008.22;;;12.51;100.00
24962;BME280;12992;50.884;13.668;2023-03-13T12:01:13;95999.72;;;12.53;100.00
24962;BME280;12992;50.884;13.668;2023-03-13T12:03:56;96017.22;;;12.52;100.00
24962;BME280;12992;50.884;13.668;2023-03-13T12:06:35;96016.34;;;12.56;100.00
24962;BME280;12992;50.884;13.668;2023-03-13T12:09:08;96001.75;;;12.47;100.00
24962;BME280;12992;50.884;13.668;2023-03-13T12:11:46;95996.88;;;12.44;100.00
24962;BME280;12992;50.884;13.668;2023-03-13T12:14:17;95998.09;;;12.52;100.00
24962;BME280;12992;50.884;13.668;2023-03-13T12:16:50;95979.63;;;12.62;100.00
24962;BME280;12992;50.884;13.668;2023-03-13T12:19:22;95989.25;;;12.73;100.00
24962;BME280;12992;50.884;13.668;2023-03-13T12:21:52;96000.28;;;12.82;100.00
24962;BME280;12992;50.884;13.668;2023-03-13T12:24:39;96015.97;;;13.04;100.00
24962;BME280;12992;50.884;13.668;2023-03-13T12:27:17;96028.53;;;13.19;100.00
24962;BME280;12992;50.884;13.668;2023-03-13T12:33:05;96005.78;;;13.23;100.00
24962;BME280;12992;50.884;13.668;2023-03-13T12:35:39;96008.28;;;13.33;100.00
24962;BME280;12992;50.884;13.668;2023-03-13T12:38:24;96012.56;;;13.53;100.00
24962;BME280;12992;50.884;13.668;2023-03-13T12:41:18;96016.13;;;13.76;100.00
24962;BME280;12992;50.884;13.668;2023-03-13T12:43:48;95988.66;;;13.81;99.84
24962;BME280;12992;50.884;13.668;2023-03-13T12:46:35;96000.25;;;14.01;100.00
24962;BME280;12992;50.884;13.668;2023-03-13T12:54:37;96011.16;;;14.90;92.78
24962;BME280;12992;50.884;13.668;2023-03-13T12:59:59;96006.34;;;15.36;89.66
24962;BME280;12992;50.884;13.668;2023-03-13T13:02:30;96002.81;;;15.44;92.55
24962;BME280;12992;50.884;13.668;2023-03-13T13:04:58;95999.81;;;15.63;89.41
24962;BME280;12992;50.884;13.668;2023-03-13T13:07:31;95980.41;;;15.50;89.99
24962;BME280;12992;50.884;13.668;2023-03-13T13:12:36;95965.94;;;15.67;87.73
24962;BME280;12992;50.884;13.668;2023-03-13T13:18:02;95973.84;;;15.77;89.16
24962;BME280;12992;50.884;13.668;2023-03-13T13:20:36;95947.84;;;15.75;87.56
24962;BME280;12992;50.884;13.668;2023-03-13T13:23:22;95931.53;;;15.70;87.35
24962;BME280;12992;50.884;13.668;2023-03-13T13:25:48;95931.72;;;15.82;86.93
24962;BME280;12992;50.884;13.668;2023-03-13T13:30:39;95933.63;;;15.99;86.88
24962;BME280;12992;50.884;13.668;2023-03-13T13:33:34;95948.97;;;16.26;87.44
24962;BME280;12992;50.884;13.668;2023-03-13T13:38:35;95861.47;;;15.20;87.79
24962;BME280;12992;50.884;13.668;2023-03-13T13:43:35;95865.59;;;15.09;88.15
24962;BME280;12992;50.884;13.668;2023-03-13T13:46:05;95889.53;;;15.43;88.75
24962;BME280;12992;50.884;13.668;2023-03-13T13:48:40;95896.53;;;15.67;87.69
24962;BME280;12992;50.884;13.668;2023-03-13T13:53:56;95868.38;;;15.44;87.46
24962;BME280;12992;50.884;13.668;2023-03-13T13:56:27;95881.63;;;15.33;91.04